Becker, MN (55308)

3:42 AM CDT on August 27, 2016 (GMT -0500)
Becker-PW | | Change Station

Elev 974 ft 45.41 °N, 93.90 °W | Updated 1 minute ago

Mostly Cloudy
Mostly Cloudy
60.4 °F
Feels Like 60.4 °F
N
1.3
Wind Variable Wind from East
Gusts 3.0 mph

Today
High -- | Low -- °F
--% Chance of Precip.
Yesterday
High -- | Low -- °F
Precip. -- in
Pressure 30.08 in
Visibility 10.0 miles
Clouds Mostly Cloudy 12000 ft
Dew Point 57 °F
Humidity 88%
Rainfall 0.00 in
Snow Depth Not available.
6:31 AM 8:01 PM
Waning Crescent, 26% visible
METAR KMGG 270834Z AUTO 00000KT 10SM BKN120 17/15 A3008 RMK AO2 T01700150
Pressure 30.08 in
Visibility 10.0 miles
Clouds Mostly Cloudy 12000 ft
Dew Point 57 °F
Humidity 88%
Rainfall 0.00 in
Snow Depth Not available.
6:31 AM 8:01 PM
Waning Crescent, 26% visible
METAR KMGG 270834Z AUTO 00000KT 10SM BKN120 17/15 A3008 RMK AO2 T01700150

10-Day Weather Forecast

Almanac

Astronomy

Aug. 27, 2016 Rise Set
Actual Time
Civil Twilight
Nautical Twilight
Astronomical Twilight
Moon
Length of Visible Light
Length of Day
Tomorrow will be .
, % of the Moon is Illuminated

Today's Extremes

State Highs State Lows

Community

WunderPhotos

Upload Photos

1,935,303 photos uploaded!

WunderBlog® & News

Nearby

Air Quality

  Air Quality AQ Index Pollutant
Not available.

Snow Depth

Station Depth Elevation

Earthquake Activity

City Distance Mag. Time & Date
Minimum magnitude displayed is 2.5.

Coastal Water Temperatures

Place Temperature

Stations

Nearby Weather Stations

Station Location Temp. Windchill Dew Point Humidity Wind Precip. Elev Updated Type
                   

Watches & Warnings

There are currently no watches in effect.